Terminal Aerodrome Forecast
Issued by NWS Memphis, TN

Home | Current Version | Previous Version | Text Only | Print | Product List | Glossary On
Versions: 1 2 3 4 5 6 7 8 9 10 11 12 13 14 15 16 17 18 19 20 21 22 23 24 25 26 27 28 29
000
FTUS44 KMEG 160534
TAFMKL
TAF
KMKL 160534Z 1606/1706 20003KT P6SM SKC
      TEMPO 1609/1613 4SM BR
     FM161500 23005KT P6SM FEW030 BKN250
     FM170500 18005KT P6SM BKN030=

USA.gov is the U.S. government's official web portal to all federal, state and local government web resources and services.